sensor_id;sensor_type;location;lat;lon;timestamp;temperature;humidity
46400;DHT22;32104;50.838;4.388;2023-04-25T00:01:21;9.70;99.90
46400;DHT22;32104;50.838;4.388;2023-04-25T00:03:54;9.60;99.90
46400;DHT22;32104;50.838;4.388;2023-04-25T00:06:22;9.60;99.90
46400;DHT22;32104;50.838;4.388;2023-04-25T00:08:57;9.50;99.90
46400;DHT22;32104;50.838;4.388;2023-04-25T00:11:23;9.70;99.90
46400;DHT22;32104;50.838;4.388;2023-04-25T00:16:51;9.70;99.90
46400;DHT22;32104;50.838;4.388;2023-04-25T00:19:31;9.60;99.90
46400;DHT22;32104;50.838;4.388;2023-04-25T00:22:22;9.60;99.90
46400;DHT22;32104;50.838;4.388;2023-04-25T00:24:50;9.60;99.90
46400;DHT22;32104;50.838;4.388;2023-04-25T00:27:20;9.50;99.90
46400;DHT22;32104;50.838;4.388;2023-04-25T00:29:48;9.50;99.90
46400;DHT22;32104;50.838;4.388;2023-04-25T00:35:21;9.50;99.90
46400;DHT22;32104;50.838;4.388;2023-04-25T00:37:54;9.50;99.90
46400;DHT22;32104;50.838;4.388;2023-04-25T00:40:28;9.60;99.90
46400;DHT22;32104;50.838;4.388;2023-04-25T00:42:54;9.40;99.90
46400;DHT22;32104;50.838;4.388;2023-04-25T00:45:27;9.40;99.90
46400;DHT22;32104;50.838;4.388;2023-04-25T00:50:59;9.40;99.90
46400;DHT22;32104;50.838;4.388;2023-04-25T01:02:12;9.20;99.90
46400;DHT22;32104;50.838;4.388;2023-04-25T01:04:59;9.10;99.90
46400;DHT22;32104;50.838;4.388;2023-04-25T01:10:13;9.10;99.90
46400;DHT22;32104;50.838;4.388;2023-04-25T01:18:51;9.20;99.90
46400;DHT22;32104;50.838;4.388;2023-04-25T01:21:19;9.20;99.90
46400;DHT22;32104;50.838;4.388;2023-04-25T01:23:53;9.20;99.90
46400;DHT22;32104;50.838;4.388;2023-04-25T01:26:22;9.20;99.90
46400;DHT22;32104;50.838;4.388;2023-04-25T01:28:59;9.20;99.90
46400;DHT22;32104;50.838;4.388;2023-04-25T01:31:52;9.30;99.90
46400;DHT22;32104;50.838;4.388;2023-04-25T01:37:40;9.10;99.90
46400;DHT22;32104;50.838;4.388;2023-04-25T01:40:20;9.00;99.90
46400;DHT22;32104;50.838;4.388;2023-04-25T01:42:54;8.90;99.90
46400;DHT22;32104;50.838;4.388;2023-04-25T01:45:25;8.90;99.90
46400;DHT22;32104;50.838;4.388;2023-04-25T01:48:14;8.90;99.90
46400;DHT22;32104;50.838;4.388;2023-04-25T01:50:48;8.90;99.90
46400;DHT22;32104;50.838;4.388;2023-04-25T01:53:19;8.80;99.90
46400;DHT22;32104;50.838;4.388;2023-04-25T01:58:50;8.60;99.90
46400;DHT22;32104;50.838;4.388;2023-04-25T02:06:22;8.60;99.90
46400;DHT22;32104;50.838;4.388;2023-04-25T02:08:51;8.70;99.90
46400;DHT22;32104;50.838;4.388;2023-04-25T02:11:17;8.80;99.90
46400;DHT22;32104;50.838;4.388;2023-04-25T02:13:42;8.70;99.90
46400;DHT22;32104;50.838;4.388;2023-04-25T02:16:08;8.70;99.90
46400;DHT22;32104;50.838;4.388;2023-04-25T02:18:34;8.70;99.90
46400;DHT22;32104;50.838;4.388;2023-04-25T02:21:02;8.70;99.90
46400;DHT22;32104;50.838;4.388;2023-04-25T02:23:30;8.70;99.90
46400;DHT22;32104;50.838;4.388;2023-04-25T02:25:55;8.70;99.90
46400;DHT22;32104;50.838;4.388;2023-04-25T02:28:23;8.70;99.90
46400;DHT22;32104;50.838;4.388;2023-04-25T02:30:50;8.70;99.90
46400;DHT22;32104;50.838;4.388;2023-04-25T02:33:15;8.70;99.90
46400;DHT22;32104;50.838;4.388;2023-04-25T02:35:42;8.40;99.90
46400;DHT22;32104;50.838;4.388;2023-04-25T02:38:10;8.30;99.90
46400;DHT22;32104;50.838;4.388;2023-04-25T02:40:36;8.30;99.90
46400;DHT22;32104;50.838;4.388;2023-04-25T02:43:02;8.50;99.90
46400;DHT22;32104;50.838;4.388;2023-04-25T02:45:28;8.60;99.90
46400;DHT22;32104;50.838;4.388;2023-04-25T02:47:55;8.60;99.90
46400;DHT22;32104;50.838;4.388;2023-04-25T02:50:20;8.60;99.90
46400;DHT22;32104;50.838;4.388;2023-04-25T02:52:46;8.50;99.90
46400;DHT22;32104;50.838;4.388;2023-04-25T02:55:12;8.50;99.90
46400;DHT22;32104;50.838;4.388;2023-04-25T02:57:38;8.60;99.90
46400;DHT22;32104;50.838;4.388;2023-04-25T03:00:05;8.70;99.90
46400;DHT22;32104;50.838;4.388;2023-04-25T03:02:35;8.80;99.90
46400;DHT22;32104;50.838;4.388;2023-04-25T03:05:00;8.80;99.90
46400;DHT22;32104;50.838;4.388;2023-04-25T03:07:26;8.70;99.90
46400;DHT22;32104;50.838;4.388;2023-04-25T03:09:52;8.70;99.90
46400;DHT22;32104;50.838;4.388;2023-04-25T03:12:20;8.80;99.90
46400;DHT22;32104;50.838;4.388;2023-04-25T03:14:46;8.90;99.90
46400;DHT22;32104;50.838;4.388;2023-04-25T03:17:12;8.80;99.90
46400;DHT22;32104;50.838;4.388;2023-04-25T03:19:38;8.90;99.90
46400;DHT22;32104;50.838;4.388;2023-04-25T03:22:04;8.80;99.90
46400;DHT22;32104;50.838;4.388;2023-04-25T03:24:34;8.70;99.90
46400;DHT22;32104;50.838;4.388;2023-04-25T03:27:02;8.60;99.90
46400;DHT22;32104;50.838;4.388;2023-04-25T03:29:30;8.40;99.90
46400;DHT22;32104;50.838;4.388;2023-04-25T03:31:59;8.30;99.90
46400;DHT22;32104;50.838;4.388;2023-04-25T03:34:27;8.40;99.90
46400;DHT22;32104;50.838;4.388;2023-04-25T03:36:54;8.30;99.90
46400;DHT22;32104;50.838;4.388;2023-04-25T03:39:20;8.20;99.90
46400;DHT22;32104;50.838;4.388;2023-04-25T03:41:49;8.20;99.90
46400;DHT22;32104;50.838;4.388;2023-04-25T03:44:15;8.20;99.90
46400;DHT22;32104;50.838;4.388;2023-04-25T03:46:41;8.10;99.90
46400;DHT22;32104;50.838;4.388;2023-04-25T03:49:09;8.10;99.90
46400;DHT22;32104;50.838;4.388;2023-04-25T03:51:46;8.30;99.90
46400;DHT22;32104;50.838;4.388;2023-04-25T03:54:12;8.20;99.90
46400;DHT22;32104;50.838;4.388;2023-04-25T03:56:40;8.20;99.90
46400;DHT22;32104;50.838;4.388;2023-04-25T03:59:14;8.20;99.90
46400;DHT22;32104;50.838;4.388;2023-04-25T04:01:39;8.20;99.90
46400;DHT22;32104;50.838;4.388;2023-04-25T04:04:05;8.00;99.90
46400;DHT22;32104;50.838;4.388;2023-04-25T04:06:31;8.00;99.90
46400;DHT22;32104;50.838;4.388;2023-04-25T04:09:05;8.00;99.90
46400;DHT22;32104;50.838;4.388;2023-04-25T04:11:41;8.00;99.90
46400;DHT22;32104;50.838;4.388;2023-04-25T04:14:11;8.10;99.90
46400;DHT22;32104;50.838;4.388;2023-04-25T04:16:39;8.20;99.90
46400;DHT22;32104;50.838;4.388;2023-04-25T04:19:05;8.30;99.90
46400;DHT22;32104;50.838;4.388;2023-04-25T04:21:31;8.40;99.90
46400;DHT22;32104;50.838;4.388;2023-04-25T04:23:58;8.30;99.90
46400;DHT22;32104;50.838;4.388;2023-04-25T04:26:30;8.20;99.90
46400;DHT22;32104;50.838;4.388;2023-04-25T04:28:57;8.20;99.90
46400;DHT22;32104;50.838;4.388;2023-04-25T04:31:24;8.30;99.90
46400;DHT22;32104;50.838;4.388;2023-04-25T04:33:52;8.40;99.90
46400;DHT22;32104;50.838;4.388;2023-04-25T04:36:18;8.50;99.90
46400;DHT22;32104;50.838;4.388;2023-04-25T04:38:47;8.50;99.90
46400;DHT22;32104;50.838;4.388;2023-04-25T04:41:18;8.50;99.90
46400;DHT22;32104;50.838;4.388;2023-04-25T04:43:44;8.50;99.90
46400;DHT22;32104;50.838;4.388;2023-04-25T04:46:10;8.60;99.90
46400;DHT22;32104;50.838;4.388;2023-04-25T04:48:39;8.60;99.90
46400;DHT22;32104;50.838;4.388;2023-04-25T04:51:05;8.60;99.90
46400;DHT22;32104;50.838;4.388;2023-04-25T04:53:35;8.80;99.90
46400;DHT22;32104;50.838;4.388;2023-04-25T04:56:03;8.60;99.90
46400;DHT22;32104;50.838;4.388;2023-04-25T04:58:32;8.60;99.90
46400;DHT22;32104;50.838;4.388;2023-04-25T05:01:22;8.70;99.90
46400;DHT22;32104;50.838;4.388;2023-04-25T05:03:50;8.80;99.90
46400;DHT22;32104;50.838;4.388;2023-04-25T05:06:16;8.60;99.90
46400;DHT22;32104;50.838;4.388;2023-04-25T05:08:42;8.40;99.90
46400;DHT22;32104;50.838;4.388;2023-04-25T05:11:09;8.20;99.90
46400;DHT22;32104;50.838;4.388;2023-04-25T05:13:41;8.10;99.90
46400;DHT22;32104;50.838;4.388;2023-04-25T05:16:19;8.10;99.90
46400;DHT22;32104;50.838;4.388;2023-04-25T05:18:47;7.90;99.90
46400;DHT22;32104;50.838;4.388;2023-04-25T05:27:16;7.80;99.90
46400;DHT22;32104;50.838;4.388;2023-04-25T05:29:42;7.80;99.90
46400;DHT22;32104;50.838;4.388;2023-04-25T05:32:14;7.50;99.90
46400;DHT22;32104;50.838;4.388;2023-04-25T05:34:59;7.60;99.90
46400;DHT22;32104;50.838;4.388;2023-04-25T05:37:26;7.70;99.90
46400;DHT22;32104;50.838;4.388;2023-04-25T05:39:53;7.70;99.90
46400;DHT22;32104;50.838;4.388;2023-04-25T05:42:21;7.60;99.90
46400;DHT22;32104;50.838;4.388;2023-04-25T05:44:56;7.70;99.90
46400;DHT22;32104;50.838;4.388;2023-04-25T05:47:36;7.80;99.90
46400;DHT22;32104;50.838;4.388;2023-04-25T05:50:22;7.90;99.90
46400;DHT22;32104;50.838;4.388;2023-04-25T05:52:53;7.90;99.90
46400;DHT22;32104;50.838;4.388;2023-04-25T05:55:19;7.90;99.90
46400;DHT22;32104;50.838;4.388;2023-04-25T05:57:48;8.00;99.90
46400;DHT22;32104;50.838;4.388;2023-04-25T06:00:19;8.20;99.90
46400;DHT22;32104;50.838;4.388;2023-04-25T06:02:49;8.40;99.90
46400;DHT22;32104;50.838;4.388;2023-04-25T06:05:21;8.40;99.90
46400;DHT22;32104;50.838;4.388;2023-04-25T06:07:46;8.50;99.90
46400;DHT22;32104;50.838;4.388;2023-04-25T06:10:18;8.50;99.90
46400;DHT22;32104;50.838;4.388;2023-04-25T06:12:48;8.60;99.90
46400;DHT22;32104;50.838;4.388;2023-04-25T06:15:16;8.70;99.90
46400;DHT22;32104;50.838;4.388;2023-04-25T06:17:45;8.60;99.90
46400;DHT22;32104;50.838;4.388;2023-04-25T06:20:13;8.50;99.90
46400;DHT22;32104;50.838;4.388;2023-04-25T06:22:51;8.50;99.90
46400;DHT22;32104;50.838;4.388;2023-04-25T06:25:40;8.60;99.90
46400;DHT22;32104;50.838;4.388;2023-04-25T06:28:14;8.60;99.90
46400;DHT22;32104;50.838;4.388;2023-04-25T06:30:43;8.60;99.90
46400;DHT22;32104;50.838;4.388;2023-04-25T06:33:18;8.70;99.90
46400;DHT22;32104;50.838;4.388;2023-04-25T06:35:55;8.70;99.90
46400;DHT22;32104;50.838;4.388;2023-04-25T06:38:40;8.70;99.90
46400;DHT22;32104;50.838;4.388;2023-04-25T06:41:13;8.70;99.90
46400;DHT22;32104;50.838;4.388;2023-04-25T06:44:05;8.70;99.90
46400;DHT22;32104;50.838;4.388;2023-04-25T06:46:35;8.80;99.90
46400;DHT22;32104;50.838;4.388;2023-04-25T06:49:03;9.00;99.90
46400;DHT22;32104;50.838;4.388;2023-04-25T06:51:29;9.00;99.90
46400;DHT22;32104;50.838;4.388;2023-04-25T06:53:59;9.20;99.90
46400;DHT22;32104;50.838;4.388;2023-04-25T06:56:25;9.20;99.90
46400;DHT22;32104;50.838;4.388;2023-04-25T06:58:51;9.00;99.90
46400;DHT22;32104;50.838;4.388;2023-04-25T07:01:18;9.00;99.90
46400;DHT22;32104;50.838;4.388;2023-04-25T07:03:44;9.00;99.90
46400;DHT22;32104;50.838;4.388;2023-04-25T07:06:11;9.00;99.90
46400;DHT22;32104;50.838;4.388;2023-04-25T07:08:48;9.10;99.90
46400;DHT22;32104;50.838;4.388;2023-04-25T07:11:15;9.00;99.90
46400;DHT22;32104;50.838;4.388;2023-04-25T07:13:44;9.00;99.90
46400;DHT22;32104;50.838;4.388;2023-04-25T07:16:13;8.90;99.90
46400;DHT22;32104;50.838;4.388;2023-04-25T07:18:41;9.00;99.90
46400;DHT22;32104;50.838;4.388;2023-04-25T07:21:10;9.00;99.90
46400;DHT22;32104;50.838;4.388;2023-04-25T07:23:35;9.00;99.90
46400;DHT22;32104;50.838;4.388;2023-04-25T07:26:09;9.00;99.90
46400;DHT22;32104;50.838;4.388;2023-04-25T07:28:40;9.10;99.90
46400;DHT22;32104;50.838;4.388;2023-04-25T07:34:18;9.00;99.90
46400;DHT22;32104;50.838;4.388;2023-04-25T07:36:49;9.20;99.90
46400;DHT22;32104;50.838;4.388;2023-04-25T07:39:17;9.30;99.90
46400;DHT22;32104;50.838;4.388;2023-04-25T07:41:51;9.20;99.90
46400;DHT22;32104;50.838;4.388;2023-04-25T07:44:21;9.20;99.90
46400;DHT22;32104;50.838;4.388;2023-04-25T07:46:50;9.10;99.90
46400;DHT22;32104;50.838;4.388;2023-04-25T07:49:22;9.20;99.90
46400;DHT22;32104;50.838;4.388;2023-04-25T07:51:53;9.30;99.90
46400;DHT22;32104;50.838;4.388;2023-04-25T07:54:22;9.40;99.90
46400;DHT22;32104;50.838;4.388;2023-04-25T07:56:48;9.50;99.90
46400;DHT22;32104;50.838;4.388;2023-04-25T07:59:14;9.70;99.90
46400;DHT22;32104;50.838;4.388;2023-04-25T08:01:47;9.80;99.90
46400;DHT22;32104;50.838;4.388;2023-04-25T08:04:22;9.70;99.90
46400;DHT22;32104;50.838;4.388;2023-04-25T08:06:56;9.80;99.90
46400;DHT22;32104;50.838;4.388;2023-04-25T08:09:27;9.90;99.90
46400;DHT22;32104;50.838;4.388;2023-04-25T08:12:00;9.90;99.90
46400;DHT22;32104;50.838;4.388;2023-04-25T08:14:27;10.00;99.90
46400;DHT22;32104;50.838;4.388;2023-04-25T08:17:02;10.10;99.90
46400;DHT22;32104;50.838;4.388;2023-04-25T08:19:29;10.30;99.90
46400;DHT22;32104;50.838;4.388;2023-04-25T08:21:56;10.40;99.90
46400;DHT22;32104;50.838;4.388;2023-04-25T08:24:33;10.40;99.90
46400;DHT22;32104;50.838;4.388;2023-04-25T08:26:59;10.30;99.90
46400;DHT22;32104;50.838;4.388;2023-04-25T08:32:14;10.30;99.90
46400;DHT22;32104;50.838;4.388;2023-04-25T08:34:40;10.00;99.90
46400;DHT22;32104;50.838;4.388;2023-04-25T08:37:14;9.90;99.90
46400;DHT22;32104;50.838;4.388;2023-04-25T08:39:51;9.80;99.90
46400;DHT22;32104;50.838;4.388;2023-04-25T08:42:22;9.80;99.90
46400;DHT22;32104;50.838;4.388;2023-04-25T08:45:14;9.90;99.90
46400;DHT22;32104;50.838;4.388;2023-04-25T08:47:46;9.90;99.90
46400;DHT22;32104;50.838;4.388;2023-04-25T08:50:17;9.90;99.90
46400;DHT22;32104;50.838;4.388;2023-04-25T08:59:06;10.50;99.90
46400;DHT22;32104;50.838;4.388;2023-04-25T09:01:45;11.00;99.90
46400;DHT22;32104;50.838;4.388;2023-04-25T09:10:58;11.30;99.90
46400;DHT22;32104;50.838;4.388;2023-04-25T09:13:30;11.20;99.90
46400;DHT22;32104;50.838;4.388;2023-04-25T09:15:57;10.90;99.90
46400;DHT22;32104;50.838;4.388;2023-04-25T09:21:47;11.00;99.90
46400;DHT22;32104;50.838;4.388;2023-04-25T09:24:13;10.80;99.90
46400;DHT22;32104;50.838;4.388;2023-04-25T09:26:44;10.60;99.90
46400;DHT22;32104;50.838;4.388;2023-04-25T09:29:17;10.70;99.90
46400;DHT22;32104;50.838;4.388;2023-04-25T09:32:16;10.40;99.90
46400;DHT22;32104;50.838;4.388;2023-04-25T09:35:03;10.30;99.90
46400;DHT22;32104;50.838;4.388;2023-04-25T09:37:55;10.10;99.90
46400;DHT22;32104;50.838;4.388;2023-04-25T09:40:38;9.90;99.90
46400;DHT22;32104;50.838;4.388;2023-04-25T09:43:25;9.90;99.90
46400;DHT22;32104;50.838;4.388;2023-04-25T09:45:54;9.90;99.90
46400;DHT22;32104;50.838;4.388;2023-04-25T09:51:59;10.10;99.90
46400;DHT22;32104;50.838;4.388;2023-04-25T09:57:39;10.40;99.90
46400;DHT22;32104;50.838;4.388;2023-04-25T10:00:30;10.40;99.90
46400;DHT22;32104;50.838;4.388;2023-04-25T10:03:22;10.70;99.90
46400;DHT22;32104;50.838;4.388;2023-04-25T10:08:52;11.40;99.90
46400;DHT22;32104;50.838;4.388;2023-04-25T10:11:37;11.50;99.90
46400;DHT22;32104;50.838;4.388;2023-04-25T10:14:18;11.10;99.90
46400;DHT22;32104;50.838;4.388;2023-04-25T10:17:11;10.80;99.90
46400;DHT22;32104;50.838;4.388;2023-04-25T10:20:05;10.80;99.90
46400;DHT22;32104;50.838;4.388;2023-04-25T10:23:06;10.70;99.90
46400;DHT22;32104;50.838;4.388;2023-04-25T10:25:47;10.60;99.90
46400;DHT22;32104;50.838;4.388;2023-04-25T10:31:09;10.90;99.90
46400;DHT22;32104;50.838;4.388;2023-04-25T10:33:40;11.20;99.90
46400;DHT22;32104;50.838;4.388;2023-04-25T10:36:20;11.60;99.90
46400;DHT22;32104;50.838;4.388;2023-04-25T10:38:47;11.70;99.90
46400;DHT22;32104;50.838;4.388;2023-04-25T10:41:13;11.70;99.90
46400;DHT22;32104;50.838;4.388;2023-04-25T10:43:44;11.70;99.90
46400;DHT22;32104;50.838;4.388;2023-04-25T10:46:25;11.50;99.90
46400;DHT22;32104;50.838;4.388;2023-04-25T10:48:56;11.60;99.90
46400;DHT22;32104;50.838;4.388;2023-04-25T10:51:23;11.80;99.90
46400;DHT22;32104;50.838;4.388;2023-04-25T10:56:19;11.50;99.90
46400;DHT22;32104;50.838;4.388;2023-04-25T10:58:45;11.30;99.90
46400;DHT22;32104;50.838;4.388;2023-04-25T11:01:15;11.20;99.90
46400;DHT22;32104;50.838;4.388;2023-04-25T11:03:44;11.30;99.90
46400;DHT22;32104;50.838;4.388;2023-04-25T11:06:23;11.50;99.90
46400;DHT22;32104;50.838;4.388;2023-04-25T11:08:49;11.30;99.90
46400;DHT22;32104;50.838;4.388;2023-04-25T11:11:19;11.20;99.90
46400;DHT22;32104;50.838;4.388;2023-04-25T11:13:48;11.20;99.90
46400;DHT22;32104;50.838;4.388;2023-04-25T11:16:15;11.10;99.90
46400;DHT22;32104;50.838;4.388;2023-04-25T11:18:41;10.90;99.90
46400;DHT22;32104;50.838;4.388;2023-04-25T11:21:07;10.70;99.90
46400;DHT22;32104;50.838;4.388;2023-04-25T11:23:33;10.60;99.90
46400;DHT22;32104;50.838;4.388;2023-04-25T11:25:58;10.80;99.90
46400;DHT22;32104;50.838;4.388;2023-04-25T11:28:26;11.00;99.90
46400;DHT22;32104;50.838;4.388;2023-04-25T11:30:52;11.00;99.90
46400;DHT22;32104;50.838;4.388;2023-04-25T11:33:22;11.10;99.90
46400;DHT22;32104;50.838;4.388;2023-04-25T11:35:50;11.30;99.90
46400;DHT22;32104;50.838;4.388;2023-04-25T11:38:18;11.50;99.90
46400;DHT22;32104;50.838;4.388;2023-04-25T11:41:02;11.50;99.90
46400;DHT22;32104;50.838;4.388;2023-04-25T11:43:33;11.60;99.90
46400;DHT22;32104;50.838;4.388;2023-04-25T11:46:19;11.50;99.90
46400;DHT22;32104;50.838;4.388;2023-04-25T11:48:50;11.40;99.90
46400;DHT22;32104;50.838;4.388;2023-04-25T11:51:19;11.30;99.90
46400;DHT22;32104;50.838;4.388;2023-04-25T11:53:52;11.20;99.90
46400;DHT22;32104;50.838;4.388;2023-04-25T11:56:18;11.30;99.90
46400;DHT22;32104;50.838;4.388;2023-04-25T12:01:40;10.80;99.90
46400;DHT22;32104;50.838;4.388;2023-04-25T12:07:09;11.40;99.90
46400;DHT22;32104;50.838;4.388;2023-04-25T12:09:38;11.50;99.90
46400;DHT22;32104;50.838;4.388;2023-04-25T12:12:29;11.70;99.90
46400;DHT22;32104;50.838;4.388;2023-04-25T12:18:06;11.80;99.90
46400;DHT22;32104;50.838;4.388;2023-04-25T12:20:35;11.70;99.90
46400;DHT22;32104;50.838;4.388;2023-04-25T12:23:05;11.70;99.90
46400;DHT22;32104;50.838;4.388;2023-04-25T12:25:41;11.60;99.90
46400;DHT22;32104;50.838;4.388;2023-04-25T12:31:06;11.40;99.90
46400;DHT22;32104;50.838;4.388;2023-04-25T12:33:38;11.20;99.90
46400;DHT22;32104;50.838;4.388;2023-04-25T12:36:30;11.30;99.90
46400;DHT22;32104;50.838;4.388;2023-04-25T12:38:59;11.30;99.90
46400;DHT22;32104;50.838;4.388;2023-04-25T12:41:29;11.20;99.90
46400;DHT22;32104;50.838;4.388;2023-04-25T12:44:06;11.10;99.90
46400;DHT22;32104;50.838;4.388;2023-04-25T12:46:34;11.10;99.90
46400;DHT22;32104;50.838;4.388;2023-04-25T12:49:00;11.20;99.90
46400;DHT22;32104;50.838;4.388;2023-04-25T12:51:34;11.40;99.90
46400;DHT22;32104;50.838;4.388;2023-04-25T12:54:03;11.70;99.90
46400;DHT22;32104;50.838;4.388;2023-04-25T12:56:37;12.20;99.90
46400;DHT22;32104;50.838;4.388;2023-04-25T12:59:08;12.30;99.90
46400;DHT22;32104;50.838;4.388;2023-04-25T13:01:34;12.10;99.90
46400;DHT22;32104;50.838;4.388;2023-04-25T13:04:04;11.90;99.90
46400;DHT22;32104;50.838;4.388;2023-04-25T13:06:30;11.70;99.90
46400;DHT22;32104;50.838;4.388;2023-04-25T13:08:59;11.60;99.90
46400;DHT22;32104;50.838;4.388;2023-04-25T13:11:35;11.60;99.90
46400;DHT22;32104;50.838;4.388;2023-04-25T13:14:24;11.80;99.90
46400;DHT22;32104;50.838;4.388;2023-04-25T13:16:53;11.90;99.90
46400;DHT22;32104;50.838;4.388;2023-04-25T13:19:19;11.70;99.90
46400;DHT22;32104;50.838;4.388;2023-04-25T13:21:57;11.50;99.90
46400;DHT22;32104;50.838;4.388;2023-04-25T13:24:45;11.30;99.90
46400;DHT22;32104;50.838;4.388;2023-04-25T13:27:11;11.30;99.90
46400;DHT22;32104;50.838;4.388;2023-04-25T13:29:59;11.30;99.90
46400;DHT22;32104;50.838;4.388;2023-04-25T13:32:37;11.30;99.90
46400;DHT22;32104;50.838;4.388;2023-04-25T13:35:24;11.30;99.90
46400;DHT22;32104;50.838;4.388;2023-04-25T13:38:00;11.60;99.90
46400;DHT22;32104;50.838;4.388;2023-04-25T13:40:30;11.90;99.90
46400;DHT22;32104;50.838;4.388;2023-04-25T13:48:58;12.60;99.90
46400;DHT22;32104;50.838;4.388;2023-04-25T13:51:28;12.50;99.90
46400;DHT22;32104;50.838;4.388;2023-04-25T13:54:24;12.40;99.90
46400;DHT22;32104;50.838;4.388;2023-04-25T13:56:51;12.00;99.90
46400;DHT22;32104;50.838;4.388;2023-04-25T13:59:19;11.70;99.90
46400;DHT22;32104;50.838;4.388;2023-04-25T14:02:08;11.60;99.90
46400;DHT22;32104;50.838;4.388;2023-04-25T14:04:39;11.20;99.90
46400;DHT22;32104;50.838;4.388;2023-04-25T14:07:15;11.00;99.90
46400;DHT22;32104;50.838;4.388;2023-04-25T14:09:51;10.80;99.90
46400;DHT22;32104;50.838;4.388;2023-04-25T14:12:30;10.80;99.90
46400;DHT22;32104;50.838;4.388;2023-04-25T14:15:06;10.70;99.90
46400;DHT22;32104;50.838;4.388;2023-04-25T14:17:34;10.70;99.90
46400;DHT22;32104;50.838;4.388;2023-04-25T14:20:06;10.90;99.90
46400;DHT22;32104;50.838;4.388;2023-04-25T14:22:35;11.00;99.90
46400;DHT22;32104;50.838;4.388;2023-04-25T14:25:09;11.20;99.90
46400;DHT22;32104;50.838;4.388;2023-04-25T14:27:40;11.30;99.90
46400;DHT22;32104;50.838;4.388;2023-04-25T14:30:06;11.40;99.90
46400;DHT22;32104;50.838;4.388;2023-04-25T14:32:34;11.20;99.90
46400;DHT22;32104;50.838;4.388;2023-04-25T14:35:07;11.20;99.90
46400;DHT22;32104;50.838;4.388;2023-04-25T14:40:31;11.20;99.90
46400;DHT22;32104;50.838;4.388;2023-04-25T14:43:05;11.20;99.90
46400;DHT22;32104;50.838;4.388;2023-04-25T14:46:00;11.20;99.90
46400;DHT22;32104;50.838;4.388;2023-04-25T14:51:10;11.50;99.90
46400;DHT22;32104;50.838;4.388;2023-04-25T14:53:37;11.70;99.90
46400;DHT22;32104;50.838;4.388;2023-04-25T14:56:05;12.20;99.90
46400;DHT22;32104;50.838;4.388;2023-04-25T14:58:36;12.10;99.90
46400;DHT22;32104;50.838;4.388;2023-04-25T15:01:05;12.00;99.90
46400;DHT22;32104;50.838;4.388;2023-04-25T15:04:01;11.80;99.90
46400;DHT22;32104;50.838;4.388;2023-04-25T15:06:37;11.90;99.90
46400;DHT22;32104;50.838;4.388;2023-04-25T15:09:11;11.90;99.90
46400;DHT22;32104;50.838;4.388;2023-04-25T15:11:54;12.10;99.90
46400;DHT22;32104;50.838;4.388;2023-04-25T15:14:39;12.20;99.90
46400;DHT22;32104;50.838;4.388;2023-04-25T15:17:15;12.20;99.90
46400;DHT22;32104;50.838;4.388;2023-04-25T15:19:41;12.00;99.90
46400;DHT22;32104;50.838;4.388;2023-04-25T15:22:14;11.90;99.90
46400;DHT22;32104;50.838;4.388;2023-04-25T15:24:48;11.80;99.90
46400;DHT22;32104;50.838;4.388;2023-04-25T15:27:16;11.90;99.90
46400;DHT22;32104;50.838;4.388;2023-04-25T15:29:42;12.00;99.90
46400;DHT22;32104;50.838;4.388;2023-04-25T15:32:18;11.90;99.90
46400;DHT22;32104;50.838;4.388;2023-04-25T15:35:03;11.90;99.90
46400;DHT22;32104;50.838;4.388;2023-04-25T15:37:34;11.90;99.90
46400;DHT22;32104;50.838;4.388;2023-04-25T15:40:20;11.60;99.90
46400;DHT22;32104;50.838;4.388;2023-04-25T15:42:56;11.20;99.90
46400;DHT22;32104;50.838;4.388;2023-04-25T15:45:22;11.30;99.90
46400;DHT22;32104;50.838;4.388;2023-04-25T15:47:50;11.30;99.90
46400;DHT22;32104;50.838;4.388;2023-04-25T15:50:28;11.20;99.90
46400;DHT22;32104;50.838;4.388;2023-04-25T15:53:08;11.20;99.90
46400;DHT22;32104;50.838;4.388;2023-04-25T15:55:35;11.20;99.90
46400;DHT22;32104;50.838;4.388;2023-04-25T16:00:53;11.20;99.90
46400;DHT22;32104;50.838;4.388;2023-04-25T16:03:20;11.20;99.90
46400;DHT22;32104;50.838;4.388;2023-04-25T16:05:46;11.40;99.90
46400;DHT22;32104;50.838;4.388;2023-04-25T16:08:12;11.40;99.90
46400;DHT22;32104;50.838;4.388;2023-04-25T16:10:38;11.40;99.90
46400;DHT22;32104;50.838;4.388;2023-04-25T16:13:04;11.30;99.90
46400;DHT22;32104;50.838;4.388;2023-04-25T16:15:36;11.30;99.90
46400;DHT22;32104;50.838;4.388;2023-04-25T16:18:04;11.20;99.90
46400;DHT22;32104;50.838;4.388;2023-04-25T16:21:00;11.10;99.90
46400;DHT22;32104;50.838;4.388;2023-04-25T16:26:04;11.10;99.90
46400;DHT22;32104;50.838;4.388;2023-04-25T16:28:40;11.10;99.90
46400;DHT22;32104;50.838;4.388;2023-04-25T16:31:13;11.10;99.90
46400;DHT22;32104;50.838;4.388;2023-04-25T16:33:47;10.90;99.90
46400;DHT22;32104;50.838;4.388;2023-04-25T16:36:20;10.90;99.90
46400;DHT22;32104;50.838;4.388;2023-04-25T16:38:49;10.80;99.90
46400;DHT22;32104;50.838;4.388;2023-04-25T16:41:36;10.50;99.90
46400;DHT22;32104;50.838;4.388;2023-04-25T16:44:02;10.60;99.90
46400;DHT22;32104;50.838;4.388;2023-04-25T16:46:37;10.60;99.90
46400;DHT22;32104;50.838;4.388;2023-04-25T16:49:12;10.60;99.90
46400;DHT22;32104;50.838;4.388;2023-04-25T16:51:38;10.60;99.90
46400;DHT22;32104;50.838;4.388;2023-04-25T16:54:17;10.70;99.90
46400;DHT22;32104;50.838;4.388;2023-04-25T16:56:48;10.70;99.90
46400;DHT22;32104;50.838;4.388;2023-04-25T16:59:16;10.90;99.90
46400;DHT22;32104;50.838;4.388;2023-04-25T17:01:42;11.20;99.90
46400;DHT22;32104;50.838;4.388;2023-04-25T17:04:16;11.30;99.90
46400;DHT22;32104;50.838;4.388;2023-04-25T17:06:44;11.20;99.90
46400;DHT22;32104;50.838;4.388;2023-04-25T17:09:12;11.20;99.90
46400;DHT22;32104;50.838;4.388;2023-04-25T17:11:44;11.10;99.90
46400;DHT22;32104;50.838;4.388;2023-04-25T17:14:18;10.80;99.90
46400;DHT22;32104;50.838;4.388;2023-04-25T17:16:45;10.80;99.90
46400;DHT22;32104;50.838;4.388;2023-04-25T17:19:15;10.70;99.90
46400;DHT22;32104;50.838;4.388;2023-04-25T17:24:42;10.50;99.90
46400;DHT22;32104;50.838;4.388;2023-04-25T17:27:18;10.50;99.90
46400;DHT22;32104;50.838;4.388;2023-04-25T17:29:53;10.50;99.90
46400;DHT22;32104;50.838;4.388;2023-04-25T17:32:29;10.40;99.90
46400;DHT22;32104;50.838;4.388;2023-04-25T17:34:56;10.20;99.90
46400;DHT22;32104;50.838;4.388;2023-04-25T17:37:22;10.10;99.90
46400;DHT22;32104;50.838;4.388;2023-04-25T17:40:08;10.20;99.90
46400;DHT22;32104;50.838;4.388;2023-04-25T17:42:43;10.10;99.90
46400;DHT22;32104;50.838;4.388;2023-04-25T17:45:16;10.00;99.90
46400;DHT22;32104;50.838;4.388;2023-04-25T17:47:41;9.90;99.90
46400;DHT22;32104;50.838;4.388;2023-04-25T17:50:07;10.10;99.90
46400;DHT22;32104;50.838;4.388;2023-04-25T17:52:33;10.20;99.90
46400;DHT22;32104;50.838;4.388;2023-04-25T17:58:40;10.10;99.90
46400;DHT22;32104;50.838;4.388;2023-04-25T18:01:40;10.10;99.90
46400;DHT22;32104;50.838;4.388;2023-04-25T18:23:27;9.60;99.90